createdAt,value
2019-04-09T00:00:59.589Z,26.60
2019-04-09T00:01:59.432Z,26.70
2019-04-09T00:02:59.363Z,25.80
2019-04-09T00:03:59.344Z,26.10
2019-04-09T00:04:59.743Z,26.00
2019-04-09T00:05:59.314Z,25.40
2019-04-09T00:06:59.298Z,27.20
2019-04-09T00:08:03.776Z,25.90
2019-04-09T00:08:59.264Z,25.20
2019-04-09T00:09:59.560Z,25.70
2019-04-09T00:10:59.510Z,25.90
2019-04-09T00:12:00.343Z,25.60
2019-04-09T00:12:59.202Z,26.50
2019-04-09T00:13:59.551Z,25.10
2019-04-09T00:14:59.167Z,26.20
2019-04-09T00:15:59.148Z,25.60
2019-04-09T00:16:59.640Z,25.80
2019-04-09T00:17:59.510Z,26.00
2019-04-09T00:18:59.103Z,25.90
2019-04-09T00:19:59.619Z,25.40
2019-04-09T00:20:59.794Z,25.80
2019-04-09T00:21:59.724Z,25.30
2019-04-09T00:22:59.567Z,24.50
2019-04-09T00:23:59.457Z,27.20
2019-04-09T00:24:58.998Z,26.20
2019-04-09T00:25:59.530Z,25.50
2019-04-09T00:26:59.498Z,26.00
2019-04-09T00:27:59.292Z,24.80
2019-04-09T00:28:58.933Z,24.80
2019-04-09T00:29:58.915Z,25.70
2019-04-09T00:30:58.898Z,25.50
2019-04-09T00:31:59.412Z,25.10
2019-04-09T00:32:59.447Z,25.10
2019-04-09T00:33:59.134Z,27.10
2019-04-09T00:34:58.849Z,25.90
2019-04-09T00:35:59.255Z,25.70
2019-04-09T00:36:58.797Z,25.70
2019-04-09T00:37:58.787Z,25.60
2019-04-09T00:38:59.504Z,24.90
2019-04-09T00:39:59.339Z,25.80
2019-04-09T00:40:59.180Z,24.90
2019-04-09T00:41:58.726Z,26.20
2019-04-09T00:42:58.700Z,25.50
2019-04-09T00:43:59.566Z,24.70
2019-04-09T00:44:59.627Z,25.00
2019-04-09T00:45:58.749Z,24.60
2019-04-09T00:46:59.608Z,25.70
2019-04-09T00:47:59.541Z,25.40
2019-04-09T00:48:58.626Z,25.90
2019-04-09T00:49:59.287Z,25.30
2019-04-09T00:50:58.564Z,26.20
2019-04-09T00:51:58.566Z,26.50
2019-04-09T00:52:58.899Z,25.80
2019-04-09T00:53:58.723Z,24.60
2019-04-09T00:54:58.514Z,25.80
2019-04-09T00:55:58.494Z,26.40
2019-04-09T00:57:03.396Z,24.40
2019-04-09T00:57:59.377Z,25.60
2019-04-09T00:58:59.163Z,25.00
2019-04-09T00:59:59.118Z,25.20
2019-04-09T01:00:58.394Z,26.40
2019-04-09T01:01:59.126Z,25.80
2019-04-09T01:02:59.193Z,27.30
2019-04-09T01:03:59.170Z,30.10
2019-04-09T01:04:58.329Z,33.70
2019-04-09T01:05:58.324Z,36.20
2019-04-09T01:06:58.352Z,42.90
2019-04-09T01:07:58.273Z,51.60
2019-04-09T01:08:58.381Z,58.40
2019-04-09T01:09:58.252Z,65.60
2019-04-09T01:10:59.136Z,67.60
2019-04-09T01:11:58.205Z,67.70
2019-04-09T01:12:58.190Z,71.80
2019-04-09T01:13:58.181Z,73.20
2019-04-09T01:14:58.182Z,75.10
2019-04-09T01:15:58.379Z,75.40
2019-04-09T01:16:58.439Z,75.80
2019-04-09T01:17:58.426Z,74.20
2019-04-09T01:19:09.679Z,68.80
2019-04-09T01:19:58.575Z,69.50
2019-04-09T01:20:58.479Z,69.20
2019-04-09T01:21:58.048Z,69.70
2019-04-09T01:22:58.024Z,65.00
2019-04-09T01:23:58.004Z,62.40
2019-04-09T01:24:57.988Z,60.80
2019-04-09T01:25:58.015Z,61.00
2019-04-09T01:27:08.711Z,58.10
2019-04-09T01:27:57.948Z,53.70
2019-04-09T01:28:57.913Z,51.80
2019-04-09T01:29:58.949Z,47.90
2019-04-09T01:30:58.911Z,45.30
2019-04-09T01:31:58.069Z,42.90
2019-04-09T01:32:58.066Z,41.10
2019-04-09T01:33:57.873Z,39.40
2019-04-09T01:34:57.822Z,39.80
2019-04-09T01:35:57.799Z,37.10
2019-04-09T01:36:57.876Z,37.40
2019-04-09T01:37:57.754Z,34.90
2019-04-09T01:38:57.736Z,36.20
2019-04-09T01:39:57.723Z,35.60
2019-04-09T01:40:58.745Z,35.40
2019-04-09T01:41:57.687Z,33.20
2019-04-09T01:42:57.908Z,33.10
2019-04-09T01:43:57.648Z,33.20
2019-04-09T01:44:58.637Z,33.70
2019-04-09T01:45:57.847Z,33.20
2019-04-09T01:46:57.750Z,33.70
2019-04-09T01:47:57.618Z,33.10
2019-04-09T01:48:57.569Z,33.30
2019-04-09T01:49:57.545Z,31.80
2019-04-09T01:50:57.912Z,32.10
2019-04-09T01:51:57.797Z,32.10
2019-04-09T01:52:57.492Z,32.20
2019-04-09T01:53:57.478Z,33.30
2019-04-09T01:54:57.456Z,32.40
2019-04-09T01:55:58.011Z,31.30
2019-04-09T01:56:57.901Z,34.00
2019-04-09T01:57:57.976Z,32.40
2019-04-09T01:58:57.834Z,31.40
2019-04-09T01:59:57.366Z,30.90
2019-04-09T02:00:57.350Z,33.10
2019-04-09T02:01:57.332Z,32.30
2019-04-09T02:02:57.315Z,32.10
2019-04-09T02:03:58.198Z,31.40
2019-04-09T02:04:58.116Z,31.50
2019-04-09T02:05:58.138Z,31.60
2019-04-09T02:06:57.467Z,32.60
2019-04-09T02:07:57.450Z,31.40
2019-04-09T02:08:57.361Z,31.30
2019-04-09T02:09:57.192Z,32.10
2019-04-09T02:10:58.042Z,32.60
2019-04-09T02:11:57.652Z,30.40
2019-04-09T02:12:57.556Z,31.10
2019-04-09T02:13:57.119Z,31.90
2019-04-09T02:14:57.102Z,30.90
2019-04-09T02:15:57.086Z,31.10
2019-04-09T02:16:57.424Z,30.80
2019-04-09T02:17:57.384Z,30.70
2019-04-09T02:18:57.031Z,31.60
2019-04-09T02:19:57.012Z,31.20
2019-04-09T02:20:57.762Z,31.30
2019-04-09T02:21:57.647Z,31.30
2019-04-09T02:22:56.961Z,31.20
2019-04-09T02:23:56.942Z,31.30
2019-04-09T02:24:56.924Z,31.90
2019-04-09T02:25:57.604Z,30.60
2019-04-09T02:26:57.461Z,31.10
2019-04-09T02:27:56.984Z,31.50
2019-04-09T02:28:56.857Z,31.90
2019-04-09T02:29:57.738Z,32.40
2019-04-09T02:30:57.694Z,31.20
2019-04-09T02:31:57.558Z,32.10
2019-04-09T02:32:56.783Z,31.00
2019-04-09T02:33:56.768Z,30.50
2019-04-09T02:34:56.941Z,30.80
2019-04-09T02:35:57.457Z,32.00
2019-04-09T02:36:58.181Z,31.40
2019-04-09T02:37:57.239Z,32.10
2019-04-09T02:38:56.684Z,30.70
2019-04-09T02:39:56.662Z,31.40
2019-04-09T02:40:56.636Z,32.10
2019-04-09T02:41:56.620Z,32.40
2019-04-09T02:42:56.683Z,32.00
2019-04-09T02:43:56.585Z,31.10
2019-04-09T02:44:56.566Z,31.10
2019-04-09T02:45:56.550Z,31.60
2019-04-09T02:46:56.529Z,32.00
2019-04-09T02:47:56.701Z,31.80
2019-04-09T02:48:56.639Z,30.90
2019-04-09T02:49:56.656Z,31.50
2019-04-09T02:50:57.440Z,31.90
2019-04-09T02:51:56.583Z,31.50
2019-04-09T02:52:56.423Z,31.00
2019-04-09T02:53:56.418Z,31.70
2019-04-09T02:54:56.393Z,32.00
2019-04-09T02:55:56.366Z,31.80
2019-04-09T02:56:56.965Z,31.30
2019-04-09T02:57:57.668Z,32.00
2019-04-09T02:58:56.313Z,31.20
2019-04-09T02:59:56.862Z,31.70
2019-04-09T03:00:56.810Z,31.70
2019-04-09T03:01:56.933Z,32.90
2019-04-09T03:02:56.821Z,30.90
2019-04-09T03:03:56.222Z,31.40
2019-04-09T03:04:56.206Z,31.30
2019-04-09T03:05:56.186Z,31.90
2019-04-09T03:06:56.793Z,31.00
2019-04-09T03:07:56.669Z,33.10
2019-04-09T03:08:56.136Z,33.00
2019-04-09T03:09:56.113Z,32.30
2019-04-09T03:10:56.095Z,32.20
2019-04-09T03:11:56.412Z,32.00
2019-04-09T03:12:56.056Z,31.60
2019-04-09T03:13:56.038Z,32.50
2019-04-09T03:14:56.025Z,31.30
2019-04-09T03:15:56.411Z,30.70
2019-04-09T03:16:57.039Z,31.30
2019-04-09T03:17:56.164Z,30.80
2019-04-09T03:18:56.228Z,32.00
2019-04-09T03:19:55.942Z,31.60
2019-04-09T03:20:55.913Z,31.30
2019-04-09T03:21:56.578Z,32.10
2019-04-09T03:22:56.105Z,31.20
2019-04-09T03:23:55.996Z,31.20
2019-04-09T03:24:55.840Z,31.50
2019-04-09T03:25:55.821Z,30.60
2019-04-09T03:26:55.833Z,30.80
2019-04-09T03:28:03.618Z,32.20
2019-04-09T03:28:55.768Z,30.70
2019-04-09T03:29:56.760Z,30.40
2019-04-09T03:30:57.384Z,30.40
2019-04-09T03:31:58.278Z,30.00
2019-04-09T03:32:56.145Z,31.60
2019-04-09T03:33:57.268Z,31.00
2019-04-09T03:34:56.551Z,29.80
2019-04-09T03:35:56.367Z,30.20
2019-04-09T03:36:56.239Z,29.50
2019-04-09T03:37:55.655Z,29.40
2019-04-09T03:38:55.581Z,29.60
2019-04-09T03:39:56.344Z,29.10
2019-04-09T03:40:56.212Z,30.60
2019-04-09T03:41:55.524Z,29.50
2019-04-09T03:42:55.510Z,29.20
2019-04-09T03:43:55.506Z,29.70
2019-04-09T03:44:55.466Z,29.70
2019-04-09T03:45:55.551Z,28.60
2019-04-09T03:46:55.430Z,29.40
2019-04-09T03:47:55.426Z,28.40
2019-04-09T03:48:55.960Z,28.60
2019-04-09T03:49:55.376Z,29.70
2019-04-09T03:50:55.356Z,29.00
2019-04-09T03:51:55.342Z,28.50
2019-04-09T03:52:56.005Z,29.80
2019-04-09T03:53:55.542Z,27.30
2019-04-09T03:54:55.485Z,28.80
2019-04-09T03:55:55.264Z,27.90
2019-04-09T03:56:55.245Z,28.30
2019-04-09T03:57:55.226Z,28.20
2019-04-09T03:58:56.072Z,28.50
2019-04-09T03:59:56.031Z,27.70
2019-04-09T04:00:55.291Z,29.30
2019-04-09T04:01:55.383Z,27.90
2019-04-09T04:02:56.698Z,27.10
2019-04-09T04:03:55.119Z,29.00
2019-04-09T04:04:55.095Z,27.40
2019-04-09T04:05:55.079Z,26.60
2019-04-09T04:06:55.060Z,26.50
2019-04-09T04:07:56.085Z,26.40
2019-04-09T04:08:56.096Z,27.30
2019-04-09T04:09:56.046Z,26.50
2019-04-09T04:10:54.982Z,25.30
2019-04-09T04:11:54.968Z,26.30
2019-04-09T04:12:55.629Z,26.10
2019-04-09T04:13:55.765Z,25.10
2019-04-09T04:14:54.905Z,33.10
2019-04-09T04:15:55.128Z,29.90
2019-04-09T04:16:55.156Z,27.20
2019-04-09T04:17:54.850Z,28.00
2019-04-09T04:18:54.831Z,33.40
2019-04-09T04:19:55.939Z,26.90
2019-04-09T04:20:54.801Z,28.00
2019-04-09T04:21:54.776Z,25.90
2019-04-09T04:22:54.759Z,24.70
2019-04-09T04:23:54.741Z,24.10
2019-04-09T04:24:55.165Z,23.60
2019-04-09T04:25:55.389Z,25.20
2019-04-09T04:26:54.685Z,24.00
2019-04-09T04:27:54.664Z,23.30
2019-04-09T04:28:54.642Z,23.60
2019-04-09T04:29:55.565Z,22.40
2019-04-09T04:30:54.848Z,23.20
2019-04-09T04:31:54.943Z,22.10
2019-04-09T04:32:54.569Z,21.70
2019-04-09T04:33:54.549Z,22.70
2019-04-09T04:34:55.289Z,22.60
2019-04-09T04:35:55.428Z,22.70
2019-04-09T04:36:55.574Z,22.10
2019-04-09T04:37:54.470Z,21.60
2019-04-09T04:38:54.455Z,20.90
2019-04-09T04:39:54.432Z,21.70
2019-04-09T04:40:54.421Z,22.90
2019-04-09T04:41:54.741Z,21.00
2019-04-09T04:42:54.379Z,22.00
2019-04-09T04:43:55.394Z,21.50
2019-04-09T04:44:55.401Z,21.40
2019-04-09T04:45:55.033Z,21.30
2019-04-09T04:46:54.304Z,20.80
2019-04-09T04:47:54.952Z,20.70
2019-04-09T04:48:54.271Z,21.60
2019-04-09T04:49:54.243Z,19.30
2019-04-09T04:50:54.226Z,20.80
2019-04-09T04:51:56.974Z,20.50
2019-04-09T04:52:54.494Z,19.50
2019-04-09T04:53:55.158Z,19.80
2019-04-09T04:54:54.527Z,18.50
2019-04-09T04:55:54.189Z,20.00
2019-04-09T04:56:54.355Z,18.80
2019-04-09T04:57:54.097Z,19.10
2019-04-09T04:58:54.075Z,19.00
2019-04-09T04:59:54.053Z,17.80
2019-04-09T05:00:54.034Z,18.90
2019-04-09T05:01:54.851Z,17.20
2019-04-09T05:02:53.995Z,17.80
2019-04-09T05:03:54.844Z,17.50
2019-04-09T05:04:54.436Z,17.70
2019-04-09T05:05:53.936Z,17.10
2019-04-09T05:06:54.834Z,17.20
2019-04-09T05:07:53.901Z,18.10
2019-04-09T05:08:54.374Z,16.80
2019-04-09T05:09:53.861Z,17.00
2019-04-09T05:10:54.345Z,17.40
2019-04-09T05:11:53.952Z,17.30
2019-04-09T05:12:53.805Z,15.90
2019-04-09T05:13:54.728Z,16.20
2019-04-09T05:14:53.768Z,16.50
2019-04-09T05:15:53.751Z,16.40
2019-04-09T05:16:54.799Z,15.40
2019-04-09T05:17:53.717Z,16.40
2019-04-09T05:18:53.698Z,15.20
2019-04-09T05:19:53.672Z,15.40
2019-04-09T05:20:53.651Z,16.20
2019-04-09T05:21:54.577Z,15.70
2019-04-09T05:22:53.611Z,14.90
2019-04-09T05:23:54.082Z,15.30
2019-04-09T05:24:54.499Z,14.70
2019-04-09T05:25:53.790Z,15.20
2019-04-09T05:26:53.538Z,15.60
2019-04-09T05:27:54.198Z,15.30
2019-04-09T05:29:00.464Z,14.90
2019-04-09T05:29:54.073Z,15.30
2019-04-09T05:30:54.399Z,15.00
2019-04-09T05:31:53.452Z,14.10
2019-04-09T05:32:55.529Z,15.20
2019-04-09T05:33:53.409Z,13.30
2019-04-09T05:34:53.387Z,14.50
2019-04-09T05:35:53.659Z,13.80
2019-04-09T05:36:53.345Z,14.80
2019-04-09T05:37:54.217Z,14.90
2019-04-09T05:38:53.679Z,14.40
2019-04-09T05:39:53.286Z,14.80
2019-04-09T05:40:53.279Z,14.20
2019-04-09T05:41:54.264Z,13.90
2019-04-09T05:42:53.230Z,14.00
2019-04-09T05:43:53.210Z,13.70
2019-04-09T05:44:53.721Z,14.30
2019-04-09T05:45:53.228Z,13.70
2019-04-09T05:46:54.200Z,13.80
2019-04-09T05:47:53.133Z,13.80
2019-04-09T05:48:53.115Z,13.70
2019-04-09T05:49:54.049Z,13.40
2019-04-09T05:50:53.075Z,13.40
2019-04-09T05:51:53.107Z,13.50
2019-04-09T05:52:53.372Z,14.30
2019-04-09T05:53:53.339Z,13.20
2019-04-09T05:54:52.998Z,13.70
2019-04-09T05:55:53.663Z,13.10
2019-04-09T05:56:52.965Z,13.60
2019-04-09T05:57:53.050Z,13.70
2019-04-09T05:59:01.305Z,13.60
2019-04-09T05:59:53.374Z,13.70
2019-04-09T06:00:52.889Z,13.50
2019-04-09T06:01:52.866Z,11.90
2019-04-09T06:02:53.536Z,13.40
2019-04-09T06:03:53.502Z,13.10
2019-04-09T06:04:52.808Z,12.80
2019-04-09T06:05:53.349Z,13.20
2019-04-09T06:06:52.769Z,12.60
2019-04-09T06:07:53.452Z,13.30
2019-04-09T06:08:52.740Z,13.00
2019-04-09T06:09:53.414Z,13.60
2019-04-09T06:10:53.596Z,12.60
2019-04-09T06:11:52.672Z,12.90
2019-04-09T06:12:53.242Z,13.40
2019-04-09T06:13:53.698Z,12.70
2019-04-09T06:14:54.127Z,12.70
2019-04-09T06:15:53.169Z,12.90
2019-04-09T06:16:52.617Z,12.30
2019-04-09T06:17:52.568Z,12.50
2019-04-09T06:18:52.557Z,13.10
2019-04-09T06:19:52.598Z,12.10
2019-04-09T06:20:52.502Z,12.60
2019-04-09T06:21:52.857Z,12.10
2019-04-09T06:22:52.461Z,12.40
2019-04-09T06:23:52.449Z,13.10
2019-04-09T06:24:52.430Z,12.00
2019-04-09T06:25:52.414Z,12.30
2019-04-09T06:26:52.866Z,12.20
2019-04-09T06:27:53.250Z,12.20
2019-04-09T06:28:52.753Z,12.60
2019-04-09T06:29:52.332Z,12.00
2019-04-09T06:30:52.319Z,11.70
2019-04-09T06:31:52.893Z,12.50
2019-04-09T06:32:53.310Z,11.50
2019-04-09T06:33:53.010Z,11.80
2019-04-09T06:34:52.245Z,11.10
2019-04-09T06:35:53.265Z,11.60
2019-04-09T06:36:52.285Z,12.00
2019-04-09T06:37:52.189Z,12.10
2019-04-09T06:38:52.297Z,11.50
2019-04-09T06:39:52.717Z,11.60
2019-04-09T06:40:52.842Z,10.70
2019-04-09T06:41:52.133Z,11.10
2019-04-09T06:42:52.092Z,10.90
2019-04-09T06:43:52.501Z,10.90
2019-04-09T06:44:53.007Z,11.40
2019-04-09T06:45:52.034Z,11.10
2019-04-09T06:46:52.018Z,10.80
2019-04-09T06:47:52.994Z,10.70
2019-04-09T06:48:51.978Z,10.70
2019-04-09T06:49:52.753Z,11.00
2019-04-09T06:50:51.935Z,10.60
2019-04-09T06:51:54.919Z,11.10
2019-04-09T06:52:52.805Z,10.60
2019-04-09T06:54:04.622Z,10.80
2019-04-09T06:54:57.765Z,10.80
2019-04-09T06:55:52.078Z,10.40
2019-04-09T06:56:51.841Z,10.70
2019-04-09T06:57:52.002Z,11.10
2019-04-09T06:58:52.475Z,11.20
2019-04-09T06:59:52.745Z,11.20
2019-04-09T07:00:52.692Z,10.50
2019-04-09T07:01:51.761Z,11.20
2019-04-09T07:02:51.747Z,11.00
2019-04-09T07:03:51.727Z,11.00
2019-04-09T07:04:52.314Z,10.90
2019-04-09T07:05:52.839Z,10.60
2019-04-09T07:06:51.689Z,11.20
2019-04-09T07:07:51.979Z,11.00
2019-04-09T07:08:51.669Z,10.70
2019-04-09T07:09:51.750Z,11.10
2019-04-09T07:10:52.406Z,10.50
2019-04-09T07:11:51.639Z,9.80
2019-04-09T07:12:51.622Z,10.60
2019-04-09T07:13:51.690Z,10.40
2019-04-09T07:14:53.355Z,10.80
2019-04-09T07:15:51.588Z,10.60
2019-04-09T07:16:51.990Z,11.40
2019-04-09T07:17:51.576Z,10.70
2019-04-09T07:18:51.563Z,10.10
2019-04-09T07:19:51.552Z,10.70
2019-04-09T07:20:51.537Z,11.10
2019-04-09T07:21:51.541Z,10.70
2019-04-09T07:22:51.521Z,10.20
2019-04-09T07:23:52.253Z,11.60
2019-04-09T07:24:52.149Z,10.40
2019-04-09T07:25:52.287Z,10.50
2019-04-09T07:26:51.666Z,10.80
2019-04-09T07:27:53.682Z,11.00
2019-04-09T07:28:55.706Z,10.60
2019-04-09T07:29:58.117Z,10.20
2019-04-09T07:30:54.004Z,10.30
2019-04-09T07:31:51.451Z,11.00
2019-04-09T07:32:52.196Z,10.60
2019-04-09T07:33:51.436Z,10.70
2019-04-09T07:34:52.587Z,10.00
2019-04-09T07:35:51.415Z,10.20
2019-04-09T07:36:51.410Z,10.90
2019-04-09T07:37:51.404Z,10.20
2019-04-09T07:38:53.336Z,10.60
2019-04-09T07:39:51.556Z,9.60
2019-04-09T07:40:51.385Z,9.60
2019-04-09T07:41:52.339Z,9.30
2019-04-09T07:42:51.368Z,9.40
2019-04-09T07:43:54.597Z,9.30
2019-04-09T07:44:51.986Z,9.90
2019-04-09T07:45:51.706Z,9.80
2019-04-09T07:46:52.179Z,9.80
2019-04-09T07:47:55.426Z,10.10
2019-04-09T07:48:52.451Z,10.20
2019-04-09T07:49:51.423Z,10.40
2019-04-09T07:50:51.429Z,10.50
2019-04-09T07:51:53.117Z,10.00
2019-04-09T07:52:55.297Z,9.50
2019-04-09T07:53:51.725Z,9.70
2019-04-09T07:54:52.468Z,10.40
2019-04-09T07:55:54.328Z,9.90
2019-04-09T07:56:51.289Z,9.80
2019-04-09T07:57:51.282Z,10.20
2019-04-09T07:58:51.526Z,10.30
2019-04-09T08:00:01.893Z,10.40
2019-04-09T08:00:51.878Z,10.70
2019-04-09T08:01:51.678Z,10.40
2019-04-09T08:02:53.271Z,10.80
2019-04-09T08:03:51.400Z,10.30
2019-04-09T08:04:51.386Z,10.40
2019-04-09T08:05:51.978Z,10.50
2019-04-09T08:06:52.376Z,10.60
2019-04-09T08:07:54.387Z,10.20
2019-04-09T08:08:51.252Z,11.50
2019-04-09T08:09:51.374Z,10.30
2019-04-09T08:10:51.219Z,11.60
2019-04-09T08:11:52.142Z,10.20
2019-04-09T08:12:52.269Z,10.60
2019-04-09T08:13:53.674Z,9.60
2019-04-09T08:14:51.542Z,10.40
2019-04-09T08:15:51.674Z,9.90
2019-04-09T08:16:51.190Z,9.80
2019-04-09T08:17:57.587Z,10.00
2019-04-09T08:18:51.487Z,10.50
2019-04-09T08:19:51.458Z,9.70
2019-04-09T08:20:51.710Z,10.50
2019-04-09T08:21:51.163Z,10.40
2019-04-09T08:22:51.386Z,10.30
2019-04-09T08:23:52.241Z,9.70
2019-04-09T08:24:55.413Z,10.20
2019-04-09T08:25:51.149Z,10.40
2019-04-09T08:26:51.153Z,10.30
2019-04-09T08:27:51.178Z,10.20
2019-04-09T08:28:52.592Z,10.00
2019-04-09T08:29:54.919Z,10.50
2019-04-09T08:30:51.563Z,10.60
2019-04-09T08:32:01.260Z,10.20
2019-04-09T08:32:51.709Z,10.70
2019-04-09T08:33:53.954Z,11.00
2019-04-09T08:34:51.114Z,11.00
2019-04-09T08:35:52.114Z,10.60
2019-04-09T08:36:54.573Z,10.70
2019-04-09T08:37:55.763Z,10.80
2019-04-09T08:38:51.880Z,10.70
2019-04-09T08:39:51.104Z,11.00
2019-04-09T08:40:53.410Z,11.00
2019-04-09T08:41:54.131Z,10.80
2019-04-09T08:42:51.088Z,11.20
2019-04-09T08:43:52.034Z,11.20
2019-04-09T08:44:52.374Z,11.00
2019-04-09T08:45:53.031Z,11.00
2019-04-09T08:46:55.661Z,10.60
2019-04-09T08:47:51.085Z,11.10
2019-04-09T08:48:51.617Z,11.20
2019-04-09T08:49:54.870Z,10.60
2019-04-09T08:50:51.072Z,10.60
2019-04-09T08:51:51.703Z,10.80
2019-04-09T08:52:51.064Z,11.10
2019-04-09T08:53:51.397Z,10.50
2019-04-09T08:54:54.697Z,11.30
2019-04-09T08:55:51.358Z,10.70
2019-04-09T08:56:53.186Z,11.30
2019-04-09T08:57:51.047Z,11.20
2019-04-09T08:58:55.313Z,10.50
2019-04-09T08:59:51.046Z,11.00
2019-04-09T09:02:05.723Z,11.20
2019-04-09T09:02:52.889Z,10.70
2019-04-09T09:03:56.461Z,11.00
2019-04-09T09:05:03.988Z,11.20
2019-04-09T09:05:56.745Z,10.80
2019-04-09T09:06:53.620Z,10.80
2019-04-09T09:07:51.031Z,11.30
2019-04-09T09:08:51.013Z,10.90
2019-04-09T09:09:51.086Z,11.30
2019-04-09T09:10:52.785Z,11.50
2019-04-09T09:11:51.675Z,11.20
2019-04-09T09:12:50.993Z,11.20
2019-04-09T09:13:51.862Z,11.60
2019-04-09T09:14:51.964Z,11.20
2019-04-09T09:15:54.308Z,11.40
2019-04-09T09:16:51.814Z,11.30
2019-04-09T09:17:53.755Z,11.20
2019-04-09T09:18:55.859Z,11.20
2019-04-09T09:19:52.342Z,10.70
2019-04-09T09:20:51.887Z,10.40
2019-04-09T09:21:51.209Z,11.00
2019-04-09T09:22:50.952Z,11.10
2019-04-09T09:23:50.939Z,11.30
2019-04-09T09:24:53.797Z,11.30
2019-04-09T09:25:50.941Z,11.00
2019-04-09T09:26:50.934Z,11.60
2019-04-09T09:27:51.871Z,10.60
2019-04-09T09:28:51.793Z,11.00
2019-04-09T09:29:55.592Z,10.70
2019-04-09T09:31:00.494Z,10.30
2019-04-09T09:31:51.144Z,10.70
2019-04-09T09:32:51.438Z,10.70
2019-04-09T09:33:53.567Z,11.60
2019-04-09T09:34:54.282Z,11.30
2019-04-09T09:35:51.788Z,11.30
2019-04-09T09:36:51.967Z,11.40
2019-04-09T09:37:54.873Z,11.40
2019-04-09T09:38:53.437Z,11.30
2019-04-09T09:39:51.375Z,11.00
2019-04-09T09:40:50.841Z,11.60
2019-04-09T09:41:50.839Z,11.60
2019-04-09T09:42:51.032Z,11.60
2019-04-09T09:43:51.566Z,11.30
2019-04-09T09:44:54.116Z,11.90
2019-04-09T09:45:50.824Z,11.30
2019-04-09T09:46:51.134Z,11.30
2019-04-09T09:47:52.224Z,11.80
2019-04-09T09:48:55.867Z,12.30
2019-04-09T09:49:50.766Z,11.40
2019-04-09T09:50:51.679Z,11.30
2019-04-09T09:51:51.612Z,11.90
2019-04-09T09:52:53.866Z,11.80
2019-04-09T09:53:53.316Z,11.70
2019-04-09T09:54:50.728Z,11.70
2019-04-09T09:55:56.329Z,11.70
2019-04-09T09:56:50.713Z,11.40
2019-04-09T09:57:50.706Z,11.10
2019-04-09T09:58:50.762Z,11.30
2019-04-09T09:59:51.963Z,11.10
2019-04-09T10:00:50.674Z,11.40
2019-04-09T10:01:59.128Z,10.80
2019-04-09T10:02:50.670Z,11.40
2019-04-09T10:03:52.244Z,11.20
2019-04-09T10:05:51.513Z,10.90
2019-04-09T10:06:52.516Z,10.50
2019-04-09T10:07:56.149Z,11.00
2019-04-09T10:07:59.667Z,10.70
2019-04-09T10:08:50.712Z,10.80
2019-04-09T10:09:50.901Z,10.50
2019-04-09T10:10:50.586Z,10.50
2019-04-09T10:11:53.692Z,10.40
2019-04-09T10:12:52.907Z,11.00
2019-04-09T10:13:50.751Z,11.10
2019-04-09T10:14:50.599Z,11.20
2019-04-09T10:15:50.974Z,11.40
2019-04-09T10:16:52.607Z,11.70
2019-04-09T10:17:51.575Z,11.50
2019-04-09T10:18:58.894Z,11.60
2019-04-09T10:19:50.655Z,11.80
2019-04-09T10:20:50.490Z,11.30
2019-04-09T10:21:51.501Z,11.60
2019-04-09T10:22:54.876Z,10.90
2019-04-09T10:23:50.465Z,11.70
2019-04-09T10:24:52.985Z,11.30
2019-04-09T10:25:50.448Z,11.60
2019-04-09T10:26:51.188Z,11.30
2019-04-09T10:27:51.798Z,11.60
2019-04-09T10:28:52.972Z,11.40
2019-04-09T10:29:50.415Z,11.40
2019-04-09T10:30:51.166Z,12.10
2019-04-09T10:31:51.743Z,12.00
2019-04-09T10:32:50.376Z,11.90
2019-04-09T10:33:52.223Z,11.70
2019-04-09T10:34:53.829Z,12.30
2019-04-09T10:35:50.980Z,12.00
2019-04-09T10:36:50.329Z,12.00
2019-04-09T10:37:51.887Z,11.70
2019-04-09T10:38:54.432Z,12.10
2019-04-09T10:39:51.463Z,12.50
2019-04-09T10:40:51.555Z,12.50
2019-04-09T10:41:51.816Z,13.20
2019-04-09T10:42:50.471Z,12.80
2019-04-09T10:43:50.539Z,12.40
2019-04-09T10:44:50.478Z,13.00
2019-04-09T10:45:54.438Z,13.00
2019-04-09T10:46:50.229Z,12.70
2019-04-09T10:47:50.213Z,12.80
2019-04-09T10:48:51.396Z,13.00
2019-04-09T10:49:53.945Z,12.20
2019-04-09T10:50:50.295Z,13.00
2019-04-09T10:51:50.174Z,13.00
2019-04-09T10:52:54.917Z,13.00
2019-04-09T10:53:50.309Z,13.70
2019-04-09T10:54:50.486Z,14.30
2019-04-09T10:55:55.050Z,13.50
2019-04-09T10:56:52.588Z,13.10
2019-04-09T10:57:50.764Z,12.90
2019-04-09T10:58:54.040Z,13.90
2019-04-09T10:59:51.140Z,12.60
2019-04-09T11:00:51.280Z,13.10
2019-04-09T11:01:54.570Z,13.00
2019-04-09T11:02:50.049Z,13.00
2019-04-09T11:03:51.574Z,14.60
2019-04-09T11:04:50.025Z,14.10
2019-04-09T11:05:53.788Z,15.40
2019-04-09T11:06:50.791Z,14.80
2019-04-09T11:07:50.013Z,14.50
2019-04-09T11:08:49.983Z,14.60
2019-04-09T11:09:49.970Z,15.10
2019-04-09T11:10:50.659Z,15.90
2019-04-09T11:11:52.951Z,14.80
2019-04-09T11:12:50.091Z,15.50
2019-04-09T11:13:50.533Z,15.00
2019-04-09T11:14:50.011Z,14.60
2019-04-09T11:15:53.849Z,14.20
2019-04-09T11:16:50.583Z,14.60
2019-04-09T11:17:50.847Z,14.70
2019-04-09T11:18:49.871Z,15.50
2019-04-09T11:19:49.861Z,14.90
2019-04-09T11:20:50.967Z,15.30
2019-04-09T11:21:50.058Z,14.80
2019-04-09T11:22:51.880Z,15.20
2019-04-09T11:23:53.815Z,15.10
2019-04-09T11:24:50.399Z,15.40
2019-04-09T11:25:49.791Z,14.90
2019-04-09T11:26:51.721Z,15.70
2019-04-09T11:27:49.772Z,15.50
2019-04-09T11:28:49.762Z,15.70
2019-04-09T11:29:49.857Z,16.20
2019-04-09T11:30:50.161Z,15.00
2019-04-09T11:31:54.758Z,14.80
2019-04-09T11:32:50.623Z,15.80
2019-04-09T11:33:49.704Z,15.50
2019-04-09T11:34:50.054Z,16.40
2019-04-09T11:35:49.678Z,18.50
2019-04-09T11:36:49.679Z,15.90
2019-04-09T11:37:49.663Z,16.40
2019-04-09T11:38:49.991Z,18.20
2019-04-09T11:39:50.326Z,16.90
2019-04-09T11:40:49.630Z,16.70
2019-04-09T11:41:50.769Z,16.80
2019-04-09T11:42:49.812Z,15.80
2019-04-09T11:43:49.590Z,16.40
2019-04-09T11:44:49.579Z,17.80
2019-04-09T11:45:50.168Z,17.50
2019-04-09T11:46:50.449Z,16.90
2019-04-09T11:47:49.766Z,17.00
2019-04-09T11:48:49.903Z,17.60
2019-04-09T11:49:49.526Z,18.10
2019-04-09T11:50:49.509Z,17.40
2019-04-09T11:51:50.034Z,18.10
2019-04-09T11:52:50.323Z,18.90
2019-04-09T11:53:50.313Z,20.00
2019-04-09T11:54:49.494Z,19.80
2019-04-09T11:55:49.456Z,21.10
2019-04-09T11:56:50.330Z,20.90
2019-04-09T11:57:49.437Z,21.00
2019-04-09T11:58:49.424Z,21.30
2019-04-09T11:59:49.412Z,20.70
2019-04-09T12:00:50.785Z,21.10
2019-04-09T12:02:00.007Z,21.40
2019-04-09T12:02:50.464Z,20.10
2019-04-09T12:03:49.612Z,21.30
2019-04-09T12:04:49.354Z,21.20
2019-04-09T12:05:50.675Z,20.80
2019-04-09T12:06:49.480Z,20.30
2019-04-09T12:07:50.393Z,20.10
2019-04-09T12:08:49.315Z,21.20
2019-04-09T12:09:49.876Z,21.60
2019-04-09T12:10:50.277Z,22.20
2019-04-09T12:11:52.049Z,22.40
2019-04-09T12:12:49.854Z,23.90
2019-04-09T12:13:49.250Z,22.80
2019-04-09T12:14:49.245Z,23.20
2019-04-09T12:15:49.228Z,23.50
2019-04-09T12:16:49.948Z,22.20
2019-04-09T12:17:49.262Z,22.80
2019-04-09T12:18:49.688Z,23.00
2019-04-09T12:20:01.031Z,22.70
2019-04-09T12:20:49.175Z,23.10
2019-04-09T12:21:49.254Z,23.30
2019-04-09T12:22:49.150Z,24.00
2019-04-09T12:23:49.135Z,23.80
2019-04-09T12:24:49.311Z,22.80
2019-04-09T12:25:49.613Z,23.70
2019-04-09T12:26:49.100Z,24.70
2019-04-09T12:27:49.093Z,24.20
2019-04-09T12:28:49.080Z,24.10
2019-04-09T12:29:49.069Z,24.30
2019-04-09T12:30:49.934Z,24.80
2019-04-09T12:31:49.041Z,25.40
2019-04-09T12:32:50.124Z,25.10
2019-04-09T12:33:49.524Z,25.20
2019-04-09T12:34:49.018Z,25.00
2019-04-09T12:35:48.997Z,25.30
2019-04-09T12:36:49.155Z,24.20
2019-04-09T12:37:50.082Z,24.40
2019-04-09T12:38:48.969Z,24.40
2019-04-09T12:39:48.952Z,24.90
2019-04-09T12:40:49.027Z,24.80
2019-04-09T12:41:50.572Z,24.10
2019-04-09T12:42:48.918Z,24.70
2019-04-09T12:43:50.439Z,24.50
2019-04-09T12:44:49.805Z,24.80
2019-04-09T12:45:48.904Z,24.20
2019-04-09T12:46:49.349Z,24.10
2019-04-09T12:47:48.856Z,25.40
2019-04-09T12:48:48.854Z,24.60
2019-04-09T12:49:49.594Z,23.90
2019-04-09T12:50:50.431Z,25.40
2019-04-09T12:51:48.812Z,24.70
2019-04-09T12:52:48.816Z,24.80
2019-04-09T12:53:48.790Z,24.80
2019-04-09T12:54:49.716Z,24.30